sensor_id;sensor_type;location;lat;lon;timestamp;temperature;humidity
41668;DHT22;27356;50.920;5.350;2022-11-04T05:36:25;9.40;99.90
41668;DHT22;27356;50.920;5.350;2022-11-04T05:38:52;9.50;99.90
41668;DHT22;27356;50.920;5.350;2022-11-04T05:41:19;9.50;99.90
41668;DHT22;27356;50.920;5.350;2022-11-04T05:43:52;9.50;99.90
41668;DHT22;27356;50.920;5.350;2022-11-04T05:46:17;9.50;99.90
41668;DHT22;27356;50.920;5.350;2022-11-04T05:48:43;9.60;99.90
41668;DHT22;27356;50.920;5.350;2022-11-04T05:51:11;9.60;99.90
41668;DHT22;27356;50.920;5.350;2022-11-04T05:53:37;9.70;99.90
41668;DHT22;27356;50.920;5.350;2022-11-04T05:56:02;9.70;99.90
41668;DHT22;27356;50.920;5.350;2022-11-04T05:58:28;9.70;99.90
41668;DHT22;27356;50.920;5.350;2022-11-04T06:00:53;9.70;99.90
41668;DHT22;27356;50.920;5.350;2022-11-04T06:03:19;9.60;99.90
41668;DHT22;27356;50.920;5.350;2022-11-04T06:05:44;9.40;99.90
41668;DHT22;27356;50.920;5.350;2022-11-04T06:08:12;9.30;99.90
41668;DHT22;27356;50.920;5.350;2022-11-04T06:10:37;9.30;99.90
41668;DHT22;27356;50.920;5.350;2022-11-04T06:13:03;9.30;99.90
41668;DHT22;27356;50.920;5.350;2022-11-04T06:15:28;9.30;99.90
41668;DHT22;27356;50.920;5.350;2022-11-04T06:17:54;9.30;99.90
41668;DHT22;27356;50.920;5.350;2022-11-04T06:20:19;9.30;99.90
41668;DHT22;27356;50.920;5.350;2022-11-04T06:22:45;9.20;99.90
41668;DHT22;27356;50.920;5.350;2022-11-04T06:25:10;9.10;99.90
41668;DHT22;27356;50.920;5.350;2022-11-04T06:27:35;9.20;99.90
41668;DHT22;27356;50.920;5.350;2022-11-04T06:30:01;9.10;99.90
41668;DHT22;27356;50.920;5.350;2022-11-04T06:32:27;9.10;99.90
41668;DHT22;27356;50.920;5.350;2022-11-04T06:34:52;9.20;99.90
41668;DHT22;27356;50.920;5.350;2022-11-04T06:37:18;9.20;99.90
41668;DHT22;27356;50.920;5.350;2022-11-04T06:39:43;9.20;99.90
41668;DHT22;27356;50.920;5.350;2022-11-04T06:42:09;9.10;99.90
41668;DHT22;27356;50.920;5.350;2022-11-04T06:44:35;9.10;99.90
41668;DHT22;27356;50.920;5.350;2022-11-04T06:47:01;9.10;99.90
41668;DHT22;27356;50.920;5.350;2022-11-04T06:49:27;9.00;99.90
41668;DHT22;27356;50.920;5.350;2022-11-04T06:51:52;9.00;99.90
41668;DHT22;27356;50.920;5.350;2022-11-04T06:54:18;9.20;99.90
41668;DHT22;27356;50.920;5.350;2022-11-04T06:56:44;9.20;99.90
41668;DHT22;27356;50.920;5.350;2022-11-04T06:59:14;9.30;99.90
41668;DHT22;27356;50.920;5.350;2022-11-04T07:01:40;9.30;99.90
41668;DHT22;27356;50.920;5.350;2022-11-04T07:04:05;9.30;99.90
41668;DHT22;27356;50.920;5.350;2022-11-04T07:06:31;9.40;99.90
41668;DHT22;27356;50.920;5.350;2022-11-04T07:08:57;9.50;99.90
41668;DHT22;27356;50.920;5.350;2022-11-04T07:11:23;9.60;99.90
41668;DHT22;27356;50.920;5.350;2022-11-04T07:13:50;9.60;99.90
41668;DHT22;27356;50.920;5.350;2022-11-04T07:16:15;9.70;99.90
41668;DHT22;27356;50.920;5.350;2022-11-04T07:18:41;9.70;99.90
41668;DHT22;27356;50.920;5.350;2022-11-04T07:21:07;9.80;99.90
41668;DHT22;27356;50.920;5.350;2022-11-04T07:23:33;9.90;99.90
41668;DHT22;27356;50.920;5.350;2022-11-04T07:25:59;10.00;99.90
41668;DHT22;27356;50.920;5.350;2022-11-04T07:28:25;10.00;99.90
41668;DHT22;27356;50.920;5.350;2022-11-04T07:30:50;10.00;99.90
41668;DHT22;27356;50.920;5.350;2022-11-04T07:33:16;10.10;99.90
41668;DHT22;27356;50.920;5.350;2022-11-04T07:35:42;10.10;99.90
41668;DHT22;27356;50.920;5.350;2022-11-04T07:38:09;10.20;99.90
41668;DHT22;27356;50.920;5.350;2022-11-04T07:40:35;10.30;99.90
41668;DHT22;27356;50.920;5.350;2022-11-04T07:43:00;10.30;99.90
41668;DHT22;27356;50.920;5.350;2022-11-04T07:45:26;10.40;99.90
41668;DHT22;27356;50.920;5.350;2022-11-04T07:47:51;10.50;99.90
41668;DHT22;27356;50.920;5.350;2022-11-04T07:50:17;10.50;99.90
41668;DHT22;27356;50.920;5.350;2022-11-04T07:52:43;10.60;99.90
41668;DHT22;27356;50.920;5.350;2022-11-04T07:55:08;10.60;99.90
41668;DHT22;27356;50.920;5.350;2022-11-04T07:57:35;10.60;99.90
41668;DHT22;27356;50.920;5.350;2022-11-04T08:00:01;10.60;99.90
41668;DHT22;27356;50.920;5.350;2022-11-04T08:02:26;10.60;99.90
41668;DHT22;27356;50.920;5.350;2022-11-04T08:04:52;10.60;99.90
41668;DHT22;27356;50.920;5.350;2022-11-04T08:07:17;10.60;99.90
41668;DHT22;27356;50.920;5.350;2022-11-04T08:09:43;10.70;99.90
41668;DHT22;27356;50.920;5.350;2022-11-04T08:12:08;10.80;99.90
41668;DHT22;27356;50.920;5.350;2022-11-04T08:14:35;10.90;99.90
41668;DHT22;27356;50.920;5.350;2022-11-04T08:17:00;10.80;99.90
41668;DHT22;27356;50.920;5.350;2022-11-04T08:19:26;10.90;99.90
41668;DHT22;27356;50.920;5.350;2022-11-04T08:21:52;11.00;99.90
41668;DHT22;27356;50.920;5.350;2022-11-04T08:24:17;11.10;99.90
41668;DHT22;27356;50.920;5.350;2022-11-04T08:26:43;11.10;99.90
41668;DHT22;27356;50.920;5.350;2022-11-04T08:29:10;11.20;99.90
41668;DHT22;27356;50.920;5.350;2022-11-04T08:31:36;11.30;99.90
41668;DHT22;27356;50.920;5.350;2022-11-04T08:34:01;11.40;99.90
41668;DHT22;27356;50.920;5.350;2022-11-04T08:36:29;11.30;99.90
41668;DHT22;27356;50.920;5.350;2022-11-04T08:38:55;11.30;99.90
41668;DHT22;27356;50.920;5.350;2022-11-04T08:41:22;11.40;99.90
41668;DHT22;27356;50.920;5.350;2022-11-04T08:43:48;11.50;99.90
41668;DHT22;27356;50.920;5.350;2022-11-04T08:46:14;11.50;99.90
41668;DHT22;27356;50.920;5.350;2022-11-04T08:48:40;11.60;99.90
41668;DHT22;27356;50.920;5.350;2022-11-04T08:51:10;11.60;99.90
41668;DHT22;27356;50.920;5.350;2022-11-04T08:53:35;11.80;99.90
41668;DHT22;27356;50.920;5.350;2022-11-04T08:56:08;11.80;99.90
41668;DHT22;27356;50.920;5.350;2022-11-04T08:58:34;11.70;99.90
41668;DHT22;27356;50.920;5.350;2022-11-04T09:01:02;11.60;99.90
41668;DHT22;27356;50.920;5.350;2022-11-04T09:03:27;11.60;99.90
41668;DHT22;27356;50.920;5.350;2022-11-04T09:05:53;11.50;99.90
41668;DHT22;27356;50.920;5.350;2022-11-04T09:08:21;11.70;99.90
41668;DHT22;27356;50.920;5.350;2022-11-04T09:10:47;11.60;99.90
41668;DHT22;27356;50.920;5.350;2022-11-04T09:13:13;11.70;99.90
41668;DHT22;27356;50.920;5.350;2022-11-04T09:15:40;11.80;99.90
41668;DHT22;27356;50.920;5.350;2022-11-04T09:18:06;12.10;99.90
41668;DHT22;27356;50.920;5.350;2022-11-04T09:20:31;12.30;99.90
41668;DHT22;27356;50.920;5.350;2022-11-04T09:22:57;12.30;99.90
41668;DHT22;27356;50.920;5.350;2022-11-04T09:25:23;12.40;99.90
41668;DHT22;27356;50.920;5.350;2022-11-04T09:27:48;12.40;99.90
41668;DHT22;27356;50.920;5.350;2022-11-04T09:30:14;12.30;99.90
41668;DHT22;27356;50.920;5.350;2022-11-04T09:32:40;12.50;99.90
41668;DHT22;27356;50.920;5.350;2022-11-04T09:35:05;12.30;99.90
41668;DHT22;27356;50.920;5.350;2022-11-04T09:37:31;12.30;99.90
41668;DHT22;27356;50.920;5.350;2022-11-04T09:39:57;12.40;99.90
41668;DHT22;27356;50.920;5.350;2022-11-04T09:45:09;12.30;99.90
41668;DHT22;27356;50.920;5.350;2022-11-04T09:47:35;12.40;99.90
41668;DHT22;27356;50.920;5.350;2022-11-04T09:50:05;12.40;99.90
41668;DHT22;27356;50.920;5.350;2022-11-04T09:52:32;12.20;99.90
41668;DHT22;27356;50.920;5.350;2022-11-04T09:55:00;12.30;99.90
41668;DHT22;27356;50.920;5.350;2022-11-04T09:57:28;12.30;99.90
41668;DHT22;27356;50.920;5.350;2022-11-04T09:59:54;12.20;99.90
41668;DHT22;27356;50.920;5.350;2022-11-04T10:05:03;12.20;99.90
41668;DHT22;27356;50.920;5.350;2022-11-04T10:10:38;12.10;99.90
41668;DHT22;27356;50.920;5.350;2022-11-04T10:15:39;12.20;99.90
41668;DHT22;27356;50.920;5.350;2022-11-04T10:18:12;12.30;99.90
41668;DHT22;27356;50.920;5.350;2022-11-04T10:23:27;12.40;99.90
41668;DHT22;27356;50.920;5.350;2022-11-04T10:28:29;12.70;99.90
41668;DHT22;27356;50.920;5.350;2022-11-04T10:30:55;12.90;99.90
41668;DHT22;27356;50.920;5.350;2022-11-04T10:35:47;13.70;99.90
41668;DHT22;27356;50.920;5.350;2022-11-04T10:38:35;14.00;99.90
41668;DHT22;27356;50.920;5.350;2022-11-04T10:41:02;14.40;99.90
41668;DHT22;27356;50.920;5.350;2022-11-04T10:43:36;14.50;99.90
41668;DHT22;27356;50.920;5.350;2022-11-04T10:48:35;14.70;99.90
41668;DHT22;27356;50.920;5.350;2022-11-04T10:51:05;14.70;99.90
41668;DHT22;27356;50.920;5.350;2022-11-04T10:53:31;14.90;99.90
41668;DHT22;27356;50.920;5.350;2022-11-04T10:58:26;15.00;99.90
41668;DHT22;27356;50.920;5.350;2022-11-04T11:00:56;15.10;99.90
41668;DHT22;27356;50.920;5.350;2022-11-04T11:03:33;15.10;99.90
41668;DHT22;27356;50.920;5.350;2022-11-04T11:08:56;15.10;99.90
41668;DHT22;27356;50.920;5.350;2022-11-04T11:11:39;15.00;99.90
41668;DHT22;27356;50.920;5.350;2022-11-04T11:16:50;14.90;99.90
41668;DHT22;27356;50.920;5.350;2022-11-04T11:19:17;14.50;99.90
41668;DHT22;27356;50.920;5.350;2022-11-04T11:21:47;14.50;99.90
41668;DHT22;27356;50.920;5.350;2022-11-04T11:24:14;14.30;99.90
41668;DHT22;27356;50.920;5.350;2022-11-04T11:26:41;14.40;99.90
41668;DHT22;27356;50.920;5.350;2022-11-04T11:29:15;14.80;99.90
41668;DHT22;27356;50.920;5.350;2022-11-04T11:31:41;15.00;99.90
41668;DHT22;27356;50.920;5.350;2022-11-04T11:36:51;15.20;99.90
41668;DHT22;27356;50.920;5.350;2022-11-04T11:39:20;15.50;99.90
41668;DHT22;27356;50.920;5.350;2022-11-04T11:44:26;15.50;99.90
41668;DHT22;27356;50.920;5.350;2022-11-04T11:46:56;15.70;99.90
41668;DHT22;27356;50.920;5.350;2022-11-04T11:49:29;15.90;99.90
41668;DHT22;27356;50.920;5.350;2022-11-04T11:52:15;15.60;99.90
41668;DHT22;27356;50.920;5.350;2022-11-04T11:54:41;15.50;99.90
41668;DHT22;27356;50.920;5.350;2022-11-04T11:57:13;15.30;99.90
41668;DHT22;27356;50.920;5.350;2022-11-04T11:59:51;15.30;99.90
41668;DHT22;27356;50.920;5.350;2022-11-04T12:04:55;15.00;99.90
41668;DHT22;27356;50.920;5.350;2022-11-04T12:15:40;14.80;99.90
41668;DHT22;27356;50.920;5.350;2022-11-04T12:18:06;14.80;99.90
41668;DHT22;27356;50.920;5.350;2022-11-04T12:20:42;14.90;99.90
41668;DHT22;27356;50.920;5.350;2022-11-04T12:25:50;14.70;99.90
41668;DHT22;27356;50.920;5.350;2022-11-04T12:33:44;14.80;99.90
41668;DHT22;27356;50.920;5.350;2022-11-04T12:36:18;14.90;99.90
41668;DHT22;27356;50.920;5.350;2022-11-04T12:43:59;14.80;99.90
41668;DHT22;27356;50.920;5.350;2022-11-04T12:46:36;14.90;99.90
41668;DHT22;27356;50.920;5.350;2022-11-04T12:56:57;14.90;99.90
41668;DHT22;27356;50.920;5.350;2022-11-04T13:02:13;15.00;99.90
41668;DHT22;27356;50.920;5.350;2022-11-04T13:04:44;15.10;99.90
41668;DHT22;27356;50.920;5.350;2022-11-04T13:07:12;15.10;99.90
41668;DHT22;27356;50.920;5.350;2022-11-04T13:09:43;15.00;99.90
41668;DHT22;27356;50.920;5.350;2022-11-04T13:12:11;15.00;99.90
41668;DHT22;27356;50.920;5.350;2022-11-04T13:14:43;15.20;99.90
41668;DHT22;27356;50.920;5.350;2022-11-04T13:17:11;15.20;99.90
41668;DHT22;27356;50.920;5.350;2022-11-04T13:22:10;15.00;99.90
41668;DHT22;27356;50.920;5.350;2022-11-04T13:24:39;15.00;99.90
41668;DHT22;27356;50.920;5.350;2022-11-04T13:27:16;15.00;99.90
41668;DHT22;27356;50.920;5.350;2022-11-04T13:29:43;14.90;99.90
41668;DHT22;27356;50.920;5.350;2022-11-04T13:35:15;15.00;99.90
41668;DHT22;27356;50.920;5.350;2022-11-04T13:37:40;15.10;99.90
41668;DHT22;27356;50.920;5.350;2022-11-04T13:40:15;15.10;99.90
41668;DHT22;27356;50.920;5.350;2022-11-04T13:45:52;14.70;99.90
41668;DHT22;27356;50.920;5.350;2022-11-04T13:48:19;14.60;99.90
41668;DHT22;27356;50.920;5.350;2022-11-04T13:50:46;14.60;99.90
41668;DHT22;27356;50.920;5.350;2022-11-04T13:53:19;14.40;99.90
41668;DHT22;27356;50.920;5.350;2022-11-04T13:55:48;14.20;99.90
41668;DHT22;27356;50.920;5.350;2022-11-04T13:58:17;14.10;99.90
41668;DHT22;27356;50.920;5.350;2022-11-04T14:01:07;14.00;99.90
41668;DHT22;27356;50.920;5.350;2022-11-04T14:06:03;13.80;99.90
41668;DHT22;27356;50.920;5.350;2022-11-04T14:08:29;13.80;99.90
41668;DHT22;27356;50.920;5.350;2022-11-04T14:15:59;14.10;99.90
41668;DHT22;27356;50.920;5.350;2022-11-04T14:18:35;14.20;99.90
41668;DHT22;27356;50.920;5.350;2022-11-04T14:21:06;14.30;99.90
41668;DHT22;27356;50.920;5.350;2022-11-04T14:23:32;14.30;99.90
41668;DHT22;27356;50.920;5.350;2022-11-04T14:25:58;14.30;99.90
41668;DHT22;27356;50.920;5.350;2022-11-04T14:28:26;14.20;99.90
41668;DHT22;27356;50.920;5.350;2022-11-04T14:35:56;13.80;99.90
41668;DHT22;27356;50.920;5.350;2022-11-04T14:38:37;14.00;99.90
41668;DHT22;27356;50.920;5.350;2022-11-04T14:43:47;14.20;99.90
41668;DHT22;27356;50.920;5.350;2022-11-04T14:46:46;14.30;99.90
41668;DHT22;27356;50.920;5.350;2022-11-04T14:49:04;14.30;99.90
41668;DHT22;27356;50.920;5.350;2022-11-04T14:51:31;14.40;99.90
41668;DHT22;27356;50.920;5.350;2022-11-04T14:54:04;14.40;99.90
41668;DHT22;27356;50.920;5.350;2022-11-04T14:56:31;14.20;99.90
41668;DHT22;27356;50.920;5.350;2022-11-04T14:58:58;14.10;99.90
41668;DHT22;27356;50.920;5.350;2022-11-04T15:01:24;13.70;99.90
41668;DHT22;27356;50.920;5.350;2022-11-04T15:03:51;13.60;99.90
41668;DHT22;27356;50.920;5.350;2022-11-04T15:06:24;13.30;99.90
41668;DHT22;27356;50.920;5.350;2022-11-04T15:08:50;13.00;99.90
41668;DHT22;27356;50.920;5.350;2022-11-04T15:11:16;12.90;99.90
41668;DHT22;27356;50.920;5.350;2022-11-04T15:13:50;12.80;99.90
41668;DHT22;27356;50.920;5.350;2022-11-04T15:16:20;12.90;99.90
41668;DHT22;27356;50.920;5.350;2022-11-04T15:18:47;12.80;99.90
41668;DHT22;27356;50.920;5.350;2022-11-04T15:21:14;12.80;99.90
41668;DHT22;27356;50.920;5.350;2022-11-04T15:23:41;12.80;99.90
41668;DHT22;27356;50.920;5.350;2022-11-04T15:26:13;12.60;99.90
41668;DHT22;27356;50.920;5.350;2022-11-04T15:28:44;12.50;99.90
41668;DHT22;27356;50.920;5.350;2022-11-04T15:33:42;12.60;99.90
41668;DHT22;27356;50.920;5.350;2022-11-04T15:36:13;12.50;99.90
41668;DHT22;27356;50.920;5.350;2022-11-04T15:38:43;12.50;99.90
41668;DHT22;27356;50.920;5.350;2022-11-04T15:41:09;12.40;99.90
41668;DHT22;27356;50.920;5.350;2022-11-04T15:43:53;12.30;99.90
41668;DHT22;27356;50.920;5.350;2022-11-04T15:46:19;12.30;99.90
41668;DHT22;27356;50.920;5.350;2022-11-04T15:49:01;12.20;99.90
41668;DHT22;27356;50.920;5.350;2022-11-04T15:51:29;12.20;99.90
41668;DHT22;27356;50.920;5.350;2022-11-04T15:56:21;12.20;99.90
41668;DHT22;27356;50.920;5.350;2022-11-04T15:58:47;12.10;99.90
41668;DHT22;27356;50.920;5.350;2022-11-04T16:01:15;12.10;99.90
41668;DHT22;27356;50.920;5.350;2022-11-04T16:03:48;12.10;99.90
41668;DHT22;27356;50.920;5.350;2022-11-04T16:06:15;12.20;99.90
41668;DHT22;27356;50.920;5.350;2022-11-04T16:08:40;12.20;99.90
41668;DHT22;27356;50.920;5.350;2022-11-04T16:11:07;12.20;99.90
41668;DHT22;27356;50.920;5.350;2022-11-04T16:13:33;12.10;99.90
41668;DHT22;27356;50.920;5.350;2022-11-04T16:20:51;12.00;99.90
41668;DHT22;27356;50.920;5.350;2022-11-04T16:23:20;12.00;99.90
41668;DHT22;27356;50.920;5.350;2022-11-04T16:25:53;12.00;99.90
41668;DHT22;27356;50.920;5.350;2022-11-04T16:28:20;11.90;99.90
41668;DHT22;27356;50.920;5.350;2022-11-04T16:30:59;11.80;99.90
41668;DHT22;27356;50.920;5.350;2022-11-04T16:33:25;11.80;99.90
41668;DHT22;27356;50.920;5.350;2022-11-04T16:35:50;11.70;99.90
41668;DHT22;27356;50.920;5.350;2022-11-04T16:38:16;11.60;99.90
41668;DHT22;27356;50.920;5.350;2022-11-04T16:40:42;11.60;99.90
41668;DHT22;27356;50.920;5.350;2022-11-04T16:43:08;11.40;99.90
41668;DHT22;27356;50.920;5.350;2022-11-04T16:45:35;11.40;99.90
41668;DHT22;27356;50.920;5.350;2022-11-04T16:48:01;11.20;99.90
41668;DHT22;27356;50.920;5.350;2022-11-04T16:50:27;11.30;99.90
41668;DHT22;27356;50.920;5.350;2022-11-04T16:52:53;11.30;99.90
41668;DHT22;27356;50.920;5.350;2022-11-04T16:55:18;11.40;99.90
41668;DHT22;27356;50.920;5.350;2022-11-04T16:57:46;11.40;99.90
41668;DHT22;27356;50.920;5.350;2022-11-04T17:00:23;11.40;99.90
41668;DHT22;27356;50.920;5.350;2022-11-04T17:02:49;11.40;99.90
41668;DHT22;27356;50.920;5.350;2022-11-04T17:05:16;11.40;99.90
41668;DHT22;27356;50.920;5.350;2022-11-04T17:07:42;11.50;99.90
41668;DHT22;27356;50.920;5.350;2022-11-04T17:10:19;11.50;99.90
41668;DHT22;27356;50.920;5.350;2022-11-04T17:12:45;11.40;99.90
41668;DHT22;27356;50.920;5.350;2022-11-04T17:15:12;11.40;99.90
41668;DHT22;27356;50.920;5.350;2022-11-04T17:17:38;11.40;99.90
41668;DHT22;27356;50.920;5.350;2022-11-04T17:20:04;11.40;99.90
41668;DHT22;27356;50.920;5.350;2022-11-04T17:22:31;11.40;99.90
41668;DHT22;27356;50.920;5.350;2022-11-04T17:24:57;11.30;99.90
41668;DHT22;27356;50.920;5.350;2022-11-04T17:27:23;11.20;99.90
41668;DHT22;27356;50.920;5.350;2022-11-04T17:29:48;11.10;99.90
41668;DHT22;27356;50.920;5.350;2022-11-04T17:32:14;11.10;99.90
41668;DHT22;27356;50.920;5.350;2022-11-04T17:34:39;11.00;99.90
41668;DHT22;27356;50.920;5.350;2022-11-04T17:37:05;10.90;99.90
41668;DHT22;27356;50.920;5.350;2022-11-04T17:39:30;10.80;99.90
41668;DHT22;27356;50.920;5.350;2022-11-04T17:41:56;10.80;99.90
41668;DHT22;27356;50.920;5.350;2022-11-04T17:44:40;10.80;99.90
41668;DHT22;27356;50.920;5.350;2022-11-04T17:47:06;10.80;99.90
41668;DHT22;27356;50.920;5.350;2022-11-04T17:49:34;10.70;99.90
41668;DHT22;27356;50.920;5.350;2022-11-04T17:52:01;10.70;99.90
41668;DHT22;27356;50.920;5.350;2022-11-04T17:54:27;10.70;99.90
41668;DHT22;27356;50.920;5.350;2022-11-04T17:56:54;10.70;99.90
41668;DHT22;27356;50.920;5.350;2022-11-04T17:59:20;10.60;99.90
41668;DHT22;27356;50.920;5.350;2022-11-04T18:01:46;10.60;99.90
41668;DHT22;27356;50.920;5.350;2022-11-04T18:04:12;10.50;99.90
41668;DHT22;27356;50.920;5.350;2022-11-04T18:06:38;10.50;99.90
41668;DHT22;27356;50.920;5.350;2022-11-04T18:09:04;10.50;99.90
41668;DHT22;27356;50.920;5.350;2022-11-04T18:11:29;10.60;99.90
41668;DHT22;27356;50.920;5.350;2022-11-04T18:14:14;10.60;99.90
41668;DHT22;27356;50.920;5.350;2022-11-04T18:16:43;10.50;99.90
41668;DHT22;27356;50.920;5.350;2022-11-04T18:19:09;10.60;99.90
41668;DHT22;27356;50.920;5.350;2022-11-04T18:21:35;10.60;99.90
41668;DHT22;27356;50.920;5.350;2022-11-04T18:24:00;10.70;99.90
41668;DHT22;27356;50.920;5.350;2022-11-04T18:26:26;10.60;99.90
41668;DHT22;27356;50.920;5.350;2022-11-04T18:28:51;10.70;99.90
41668;DHT22;27356;50.920;5.350;2022-11-04T18:31:25;10.70;99.90
41668;DHT22;27356;50.920;5.350;2022-11-04T18:33:50;10.70;99.90
41668;DHT22;27356;50.920;5.350;2022-11-04T18:36:16;10.80;99.90
41668;DHT22;27356;50.920;5.350;2022-11-04T18:38:41;10.90;99.90
41668;DHT22;27356;50.920;5.350;2022-11-04T18:41:07;10.90;99.90
41668;DHT22;27356;50.920;5.350;2022-11-04T18:43:32;10.90;99.90
41668;DHT22;27356;50.920;5.350;2022-11-04T18:45:58;11.00;99.90
41668;DHT22;27356;50.920;5.350;2022-11-04T18:48:30;11.00;99.90
41668;DHT22;27356;50.920;5.350;2022-11-04T18:51:17;11.00;99.90
41668;DHT22;27356;50.920;5.350;2022-11-04T18:53:41;10.90;99.90
41668;DHT22;27356;50.920;5.350;2022-11-04T18:56:07;10.90;99.90
41668;DHT22;27356;50.920;5.350;2022-11-04T18:58:34;10.90;99.90
41668;DHT22;27356;50.920;5.350;2022-11-04T19:01:09;10.80;99.90
41668;DHT22;27356;50.920;5.350;2022-11-04T19:03:34;10.70;99.90
41668;DHT22;27356;50.920;5.350;2022-11-04T19:06:20;10.60;99.90
41668;DHT22;27356;50.920;5.350;2022-11-04T19:08:46;10.60;99.90
41668;DHT22;27356;50.920;5.350;2022-11-04T19:11:13;10.50;99.90
41668;DHT22;27356;50.920;5.350;2022-11-04T19:13:39;10.40;99.90
41668;DHT22;27356;50.920;5.350;2022-11-04T19:16:05;10.30;99.90
41668;DHT22;27356;50.920;5.350;2022-11-04T19:18:31;10.20;99.90
41668;DHT22;27356;50.920;5.350;2022-11-04T19:20:57;10.10;99.90
41668;DHT22;27356;50.920;5.350;2022-11-04T19:23:26;10.10;99.90
41668;DHT22;27356;50.920;5.350;2022-11-04T19:25:54;10.00;99.90
41668;DHT22;27356;50.920;5.350;2022-11-04T19:28:19;9.90;99.90
41668;DHT22;27356;50.920;5.350;2022-11-04T19:30:45;9.90;99.90
41668;DHT22;27356;50.920;5.350;2022-11-04T19:33:20;9.90;99.90
41668;DHT22;27356;50.920;5.350;2022-11-04T19:35:49;9.70;99.90
41668;DHT22;27356;50.920;5.350;2022-11-04T19:38:15;9.70;99.90
41668;DHT22;27356;50.920;5.350;2022-11-04T19:40:41;9.70;99.90
41668;DHT22;27356;50.920;5.350;2022-11-04T19:43:07;9.60;99.90
41668;DHT22;27356;50.920;5.350;2022-11-04T19:45:39;9.60;99.90
41668;DHT22;27356;50.920;5.350;2022-11-04T19:48:04;9.50;99.90
41668;DHT22;27356;50.920;5.350;2022-11-04T19:50:33;9.50;99.90
41668;DHT22;27356;50.920;5.350;2022-11-04T19:53:01;9.50;99.90
41668;DHT22;27356;50.920;5.350;2022-11-04T19:55:29;9.40;99.90
41668;DHT22;27356;50.920;5.350;2022-11-04T19:57:55;9.40;99.90
41668;DHT22;27356;50.920;5.350;2022-11-04T20:00:21;9.40;99.90
41668;DHT22;27356;50.920;5.350;2022-11-04T20:02:48;9.40;99.90
41668;DHT22;27356;50.920;5.350;2022-11-04T20:05:14;9.40;99.90
41668;DHT22;27356;50.920;5.350;2022-11-04T20:07:40;9.40;99.90
41668;DHT22;27356;50.920;5.350;2022-11-04T20:10:05;9.30;99.90
41668;DHT22;27356;50.920;5.350;2022-11-04T20:12:33;9.20;99.90
41668;DHT22;27356;50.920;5.350;2022-11-04T20:15:17;9.10;99.90
41668;DHT22;27356;50.920;5.350;2022-11-04T20:17:42;9.10;99.90
41668;DHT22;27356;50.920;5.350;2022-11-04T20:20:08;9.10;99.90
41668;DHT22;27356;50.920;5.350;2022-11-04T20:22:33;9.00;99.90
41668;DHT22;27356;50.920;5.350;2022-11-04T20:24:59;8.90;99.90
41668;DHT22;27356;50.920;5.350;2022-11-04T20:27:24;8.80;99.90
41668;DHT22;27356;50.920;5.350;2022-11-04T20:29:50;8.80;99.90
41668;DHT22;27356;50.920;5.350;2022-11-04T20:32:15;8.70;99.90
41668;DHT22;27356;50.920;5.350;2022-11-04T20:34:41;8.70;99.90
41668;DHT22;27356;50.920;5.350;2022-11-04T20:37:06;8.60;99.90
41668;DHT22;27356;50.920;5.350;2022-11-04T20:39:32;8.60;99.90
41668;DHT22;27356;50.920;5.350;2022-11-04T20:41:57;8.50;99.90
41668;DHT22;27356;50.920;5.350;2022-11-04T20:44:23;8.50;99.90
41668;DHT22;27356;50.920;5.350;2022-11-04T20:46:49;8.40;99.90
41668;DHT22;27356;50.920;5.350;2022-11-04T20:49:14;8.40;99.90
41668;DHT22;27356;50.920;5.350;2022-11-04T20:51:40;8.30;99.90
41668;DHT22;27356;50.920;5.350;2022-11-04T20:54:09;8.30;99.90
41668;DHT22;27356;50.920;5.350;2022-11-04T20:56:35;8.30;99.90
41668;DHT22;27356;50.920;5.350;2022-11-04T20:59:01;8.30;99.90
41668;DHT22;27356;50.920;5.350;2022-11-04T21:01:34;8.20;99.90
41668;DHT22;27356;50.920;5.350;2022-11-04T21:04:02;8.10;99.90
41668;DHT22;27356;50.920;5.350;2022-11-04T21:06:29;8.10;99.90
41668;DHT22;27356;50.920;5.350;2022-11-04T21:08:56;8.10;99.90
41668;DHT22;27356;50.920;5.350;2022-11-04T21:11:22;8.00;99.90
41668;DHT22;27356;50.920;5.350;2022-11-04T21:13:47;8.00;99.90
41668;DHT22;27356;50.920;5.350;2022-11-04T21:16:13;8.00;99.90
41668;DHT22;27356;50.920;5.350;2022-11-04T21:18:39;8.00;99.90
41668;DHT22;27356;50.920;5.350;2022-11-04T21:21:06;8.00;99.90
